createdAt,value
2018-05-17T00:00:49.549Z,16.50
2018-05-17T00:03:17.690Z,16.40
2018-05-17T00:05:45.432Z,16.40
2018-05-17T00:08:13.718Z,16.30
2018-05-17T00:10:42.020Z,16.30
2018-05-17T00:13:09.980Z,16.30
2018-05-17T00:15:37.496Z,16.30
2018-05-17T00:18:05.504Z,16.20
2018-05-17T00:20:33.758Z,16.20
2018-05-17T00:23:01.286Z,16.10
2018-05-17T00:25:29.115Z,16.10
2018-05-17T00:27:57.474Z,16.10
2018-05-17T00:30:24.945Z,16.00
2018-05-17T00:32:53.996Z,16.00
2018-05-17T00:35:22.348Z,15.90
2018-05-17T00:37:50.626Z,15.90
2018-05-17T00:40:20.006Z,15.90
2018-05-17T00:42:47.589Z,15.90
2018-05-17T00:45:15.909Z,15.90
2018-05-17T00:47:43.456Z,15.90
2018-05-17T00:50:13.574Z,15.80
2018-05-17T00:52:41.913Z,15.80
2018-05-17T00:55:09.398Z,15.80
2018-05-17T00:57:37.711Z,15.80
2018-05-17T01:00:06.344Z,15.70
2018-05-17T01:02:35.407Z,15.70
2018-05-17T01:05:03.402Z,15.70
2018-05-17T01:07:30.923Z,15.80
2018-05-17T01:09:59.852Z,15.70
2018-05-17T01:12:27.342Z,15.70
2018-05-17T01:14:55.515Z,15.70
2018-05-17T01:17:22.993Z,15.70
2018-05-17T01:19:50.478Z,15.60
2018-05-17T01:22:18.752Z,15.60
2018-05-17T01:24:47.461Z,15.60
2018-05-17T01:27:15.761Z,15.60
2018-05-17T01:29:43.403Z,15.50
2018-05-17T01:32:11.758Z,15.50
2018-05-17T01:34:39.267Z,15.40
2018-05-17T01:37:18.739Z,15.40
2018-05-17T01:39:46.587Z,15.40
2018-05-17T01:42:14.229Z,15.40
2018-05-17T01:44:42.503Z,15.30
2018-05-17T01:47:10.814Z,15.30
2018-05-17T01:49:38.994Z,15.30
2018-05-17T01:52:06.495Z,15.20
2018-05-17T01:54:34.082Z,15.20
2018-05-17T01:57:01.632Z,15.20
2018-05-17T01:59:30.238Z,15.10
2018-05-17T02:01:57.857Z,15.10
2018-05-17T02:04:25.404Z,15.10
2018-05-17T02:06:54.754Z,15.00
2018-05-17T02:09:22.359Z,15.00
2018-05-17T02:11:49.948Z,15.00
2018-05-17T02:14:17.454Z,15.00
2018-05-17T02:16:44.948Z,15.00
2018-05-17T02:19:12.521Z,14.90
2018-05-17T02:21:40.768Z,14.90
2018-05-17T02:24:08.290Z,14.90
2018-05-17T02:26:35.792Z,14.90
2018-05-17T02:29:04.075Z,14.90
2018-05-17T02:31:31.680Z,14.90
2018-05-17T02:33:59.772Z,14.90
2018-05-17T02:36:27.262Z,14.80
2018-05-17T02:38:54.748Z,14.90
2018-05-17T02:41:22.652Z,14.80
2018-05-17T02:43:50.598Z,14.80
2018-05-17T02:46:19.064Z,14.60
2018-05-17T02:48:46.776Z,14.60
2018-05-17T02:51:14.326Z,14.60
2018-05-17T02:53:42.615Z,14.60
2018-05-17T02:56:10.786Z,14.50
2018-05-17T02:58:38.292Z,14.60
2018-05-17T03:01:05.798Z,14.60
2018-05-17T03:03:34.786Z,14.60
2018-05-17T03:06:02.298Z,14.50
2018-05-17T03:08:29.829Z,14.60
2018-05-17T03:10:58.119Z,14.50
2018-05-17T03:13:25.686Z,14.50
2018-05-17T03:15:53.673Z,14.50
2018-05-17T03:18:21.170Z,14.50
2018-05-17T03:20:48.985Z,14.50
2018-05-17T03:23:17.248Z,14.40
2018-05-17T03:25:45.729Z,14.30
2018-05-17T03:28:13.881Z,14.30
2018-05-17T03:30:41.366Z,14.30
2018-05-17T03:33:08.890Z,14.40
2018-05-17T03:35:37.132Z,14.40
2018-05-17T03:38:05.388Z,14.30
2018-05-17T03:40:33.000Z,14.30
2018-05-17T03:43:00.562Z,14.30
2018-05-17T03:45:28.204Z,14.30
2018-05-17T03:47:56.536Z,14.30
2018-05-17T03:50:24.042Z,14.30
2018-05-17T03:52:51.570Z,14.30
2018-05-17T03:55:19.080Z,14.30
2018-05-17T03:57:47.358Z,14.30
2018-05-17T04:00:15.664Z,14.20
2018-05-17T04:02:55.091Z,14.20
2018-05-17T04:05:34.486Z,14.20
2018-05-17T04:08:02.004Z,14.20
2018-05-17T04:10:29.676Z,14.20
2018-05-17T04:12:57.880Z,14.20
2018-05-17T04:15:25.416Z,14.30
2018-05-17T04:17:52.898Z,14.30
2018-05-17T04:20:20.544Z,14.30
2018-05-17T04:22:48.078Z,14.30
2018-05-17T04:25:16.804Z,14.40
2018-05-17T04:27:44.302Z,14.30
2018-05-17T04:30:11.940Z,14.40
2018-05-17T04:32:39.462Z,14.40
2018-05-17T04:35:06.991Z,14.50
2018-05-17T04:37:34.592Z,14.60
2018-05-17T04:40:02.900Z,14.80
2018-05-17T04:42:30.460Z,14.80
2018-05-17T04:44:57.950Z,14.80
2018-05-17T04:47:25.586Z,14.90
2018-05-17T04:49:53.114Z,15.20
2018-05-17T04:52:20.655Z,15.80
2018-05-17T04:54:48.270Z,16.50
2018-05-17T04:57:16.531Z,17.60
2018-05-17T04:59:46.564Z,18.10
2018-05-17T05:02:14.016Z,18.10
2018-05-17T05:04:42.328Z,19.10
2018-05-17T05:07:10.508Z,19.10
2018-05-17T05:09:38.218Z,19.30
2018-05-17T05:12:05.738Z,19.50
2018-05-17T05:14:33.300Z,19.70
2018-05-17T05:17:01.027Z,19.90
2018-05-17T05:19:28.528Z,19.90
2018-05-17T05:21:56.104Z,20.00
2018-05-17T05:24:23.706Z,20.00
2018-05-17T05:26:51.226Z,19.90
2018-05-17T05:29:18.738Z,19.80
2018-05-17T05:31:46.262Z,19.60
2018-05-17T05:34:13.784Z,19.50
2018-05-17T05:36:42.182Z,19.20
2018-05-17T05:39:11.274Z,19.10
2018-05-17T05:41:39.606Z,19.30
2018-05-17T05:44:07.136Z,19.30
2018-05-17T05:46:34.670Z,19.50
2018-05-17T05:49:02.312Z,19.80
2018-05-17T05:51:29.854Z,20.10
2018-05-17T05:53:57.420Z,20.30
2018-05-17T05:56:24.939Z,20.50
2018-05-17T05:58:53.514Z,20.80
2018-05-17T06:01:21.018Z,20.80
2018-05-17T06:03:48.744Z,20.80
2018-05-17T06:06:16.278Z,20.70
2018-05-17T06:08:44.018Z,20.80
2018-05-17T06:11:11.623Z,20.80
2018-05-17T06:13:39.129Z,20.70
2018-05-17T06:16:07.530Z,20.90
2018-05-17T06:18:35.085Z,20.90
2018-05-17T06:21:03.373Z,21.20
2018-05-17T06:23:31.020Z,21.20
2018-05-17T06:25:59.312Z,21.60
2018-05-17T06:28:26.848Z,21.60
2018-05-17T06:30:54.438Z,22.10
2018-05-17T06:33:22.078Z,22.10
2018-05-17T06:35:50.364Z,21.90
2018-05-17T06:38:19.151Z,21.60
2018-05-17T06:40:46.736Z,21.50
2018-05-17T06:43:15.186Z,21.30
2018-05-17T06:45:42.790Z,21.30
2018-05-17T06:48:11.059Z,21.80
2018-05-17T06:50:39.340Z,21.90
2018-05-17T06:53:07.618Z,21.70
2018-05-17T06:55:35.901Z,21.60
2018-05-17T06:58:04.161Z,21.60
2018-05-17T07:00:31.695Z,21.60
2018-05-17T07:02:59.936Z,21.50
2018-05-17T07:05:28.934Z,21.50
2018-05-17T07:07:57.213Z,21.60
2018-05-17T07:10:25.535Z,21.60
2018-05-17T07:12:53.042Z,21.60
2018-05-17T07:15:20.640Z,21.70
2018-05-17T07:17:48.230Z,21.80
2018-05-17T07:20:15.722Z,22.00
2018-05-17T07:22:44.734Z,22.40
2018-05-17T07:25:12.220Z,22.40
2018-05-17T07:27:40.558Z,22.10
2018-05-17T07:30:08.870Z,21.90
2018-05-17T07:32:37.153Z,21.50
2018-05-17T07:35:05.432Z,21.30
2018-05-17T07:37:32.951Z,21.30
2018-05-17T07:40:00.554Z,21.40
2018-05-17T07:42:28.849Z,21.50
2018-05-17T07:44:57.408Z,21.30
2018-05-17T07:47:25.136Z,21.30
2018-05-17T07:49:52.631Z,21.10
2018-05-17T07:52:20.254Z,20.90
2018-05-17T07:54:47.749Z,20.70
2018-05-17T07:57:15.672Z,20.60
2018-05-17T07:59:43.174Z,20.70
2018-05-17T08:02:10.784Z,20.80
2018-05-17T08:04:39.071Z,20.70
2018-05-17T08:07:07.336Z,20.60
2018-05-17T08:09:34.944Z,20.60
2018-05-17T08:12:02.482Z,20.50
2018-05-17T08:14:30.518Z,20.50
2018-05-17T08:16:58.164Z,20.50
2018-05-17T08:19:25.930Z,20.60
2018-05-17T08:21:54.207Z,20.60
2018-05-17T08:24:21.825Z,20.60
2018-05-17T08:26:50.207Z,20.70
2018-05-17T08:29:17.819Z,20.60
2018-05-17T08:31:45.407Z,20.70
2018-05-17T08:34:12.944Z,20.70
2018-05-17T08:36:41.133Z,20.70
2018-05-17T08:39:08.577Z,20.80
2018-05-17T08:41:36.550Z,20.90
2018-05-17T08:44:04.052Z,21.00
2018-05-17T08:46:31.552Z,21.00
2018-05-17T08:48:59.962Z,20.90
2018-05-17T08:51:27.450Z,20.90
2018-05-17T08:53:54.976Z,20.90
2018-05-17T08:56:23.358Z,21.10
2018-05-17T08:58:51.646Z,21.30
2018-05-17T09:01:19.843Z,21.30
2018-05-17T09:03:47.779Z,21.50
2018-05-17T09:06:16.100Z,21.90
2018-05-17T09:08:45.025Z,22.00
2018-05-17T09:11:12.517Z,22.00
2018-05-17T09:13:40.921Z,22.00
2018-05-17T09:16:08.400Z,22.00
2018-05-17T09:18:36.041Z,21.80
2018-05-17T09:21:04.303Z,21.50
2018-05-17T09:23:32.590Z,21.50
2018-05-17T09:26:00.916Z,21.30
2018-05-17T09:28:28.438Z,21.40
2018-05-17T09:30:56.703Z,21.40
2018-05-17T09:33:24.256Z,21.40
2018-05-17T09:35:53.106Z,21.60
2018-05-17T09:38:21.420Z,21.60
2018-05-17T09:40:48.952Z,21.80
2018-05-17T09:43:17.448Z,21.90
2018-05-17T09:45:45.704Z,21.80
2018-05-17T09:48:13.574Z,21.60
2018-05-17T09:50:41.458Z,21.50
2018-05-17T09:53:08.974Z,21.50
2018-05-17T09:55:37.042Z,21.40
2018-05-17T09:58:04.674Z,21.30
2018-05-17T10:00:32.266Z,21.30
2018-05-17T10:02:59.780Z,21.20
2018-05-17T10:05:27.312Z,21.10
2018-05-17T10:07:54.867Z,21.10
2018-05-17T10:10:23.224Z,21.00
2018-05-17T10:12:50.751Z,21.00
2018-05-17T10:15:19.054Z,20.70
2018-05-17T10:17:46.614Z,20.70
2018-05-17T10:20:14.128Z,20.70
2018-05-17T10:22:41.714Z,20.80
2018-05-17T10:25:10.008Z,21.10
2018-05-17T10:27:38.804Z,21.10
2018-05-17T10:30:06.406Z,21.00
2018-05-17T10:32:33.918Z,21.20
2018-05-17T10:35:02.199Z,21.60
2018-05-17T10:37:30.444Z,21.90
2018-05-17T10:39:57.959Z,21.90
2018-05-17T10:42:27.038Z,22.00
2018-05-17T10:44:55.310Z,21.80
2018-05-17T10:47:22.817Z,21.80
2018-05-17T10:49:50.378Z,21.70
2018-05-17T10:52:17.892Z,21.70
2018-05-17T10:54:45.500Z,21.70
2018-05-17T10:57:12.989Z,22.00
2018-05-17T10:59:42.021Z,22.30
2018-05-17T11:02:09.600Z,22.30
2018-05-17T11:04:37.902Z,21.90
2018-05-17T11:07:05.441Z,21.90
2018-05-17T11:09:33.713Z,21.90
2018-05-17T11:12:02.004Z,22.10
2018-05-17T11:14:30.353Z,22.10
2018-05-17T11:16:57.936Z,22.10
2018-05-17T11:19:25.518Z,22.20
2018-05-17T11:21:53.158Z,22.10
2018-05-17T11:24:21.058Z,22.10
2018-05-17T11:26:49.909Z,21.90
2018-05-17T11:29:17.548Z,21.90
2018-05-17T11:31:45.615Z,21.70
2018-05-17T11:34:13.100Z,21.70
2018-05-17T11:36:40.634Z,21.80
2018-05-17T11:39:08.894Z,21.90
2018-05-17T11:41:36.392Z,21.90
2018-05-17T11:44:03.902Z,22.00
2018-05-17T11:46:31.510Z,22.00
2018-05-17T11:48:59.081Z,21.90
2018-05-17T11:51:27.222Z,22.00
2018-05-17T11:53:54.730Z,22.00
2018-05-17T11:56:22.403Z,22.10
2018-05-17T11:58:49.896Z,22.00
2018-05-17T12:01:17.398Z,22.00
2018-05-17T12:03:46.221Z,22.20
2018-05-17T12:06:13.738Z,22.20
2018-05-17T12:08:42.037Z,22.40
2018-05-17T12:11:10.497Z,22.40
2018-05-17T12:13:37.995Z,22.40
2018-05-17T12:16:05.546Z,22.50
2018-05-17T12:18:33.825Z,22.60
2018-05-17T12:21:02.104Z,22.60
2018-05-17T12:23:29.615Z,22.60
2018-05-17T12:25:57.151Z,22.60
2018-05-17T12:28:24.660Z,22.60
2018-05-17T12:30:52.178Z,22.50
2018-05-17T12:33:20.203Z,22.50
2018-05-17T12:35:47.728Z,22.50
2018-05-17T12:38:15.269Z,22.50
2018-05-17T12:40:42.779Z,22.50
2018-05-17T12:43:10.377Z,22.40
2018-05-17T12:45:37.899Z,22.40
2018-05-17T12:48:05.829Z,22.40
2018-05-17T12:50:34.103Z,22.40
2018-05-17T12:53:03.821Z,22.40
2018-05-17T12:55:32.075Z,22.40
2018-05-17T12:57:59.716Z,22.40
2018-05-17T13:00:27.249Z,22.30
2018-05-17T13:02:55.529Z,22.30
2018-05-17T13:05:23.757Z,22.40
2018-05-17T13:07:51.330Z,22.50
2018-05-17T13:10:18.944Z,22.50
2018-05-17T13:12:46.522Z,22.60
2018-05-17T13:15:14.338Z,22.60
2018-05-17T13:17:41.857Z,22.70
2018-05-17T13:20:09.365Z,22.50
2018-05-17T13:22:37.034Z,22.40
2018-05-17T13:25:04.532Z,22.40
2018-05-17T13:27:32.049Z,22.50
2018-05-17T13:30:00.829Z,22.60
2018-05-17T13:32:28.415Z,22.50
2018-05-17T13:34:55.944Z,22.60
2018-05-17T13:37:23.615Z,22.60
2018-05-17T13:39:51.107Z,22.60
2018-05-17T13:42:19.181Z,22.50
2018-05-17T13:44:46.718Z,22.50
2018-05-17T13:47:14.358Z,22.50
2018-05-17T13:49:41.904Z,22.60
2018-05-17T13:52:10.342Z,22.60
2018-05-17T13:54:37.869Z,22.60
2018-05-17T13:57:05.458Z,22.70
2018-05-17T13:59:32.952Z,22.80
2018-05-17T14:02:00.852Z,22.90
2018-05-17T14:04:29.129Z,23.00
2018-05-17T14:06:57.393Z,23.20
2018-05-17T14:09:25.822Z,23.20
2018-05-17T14:11:53.354Z,23.10
2018-05-17T14:14:21.626Z,23.30
2018-05-17T14:16:49.143Z,23.30
2018-05-17T14:19:16.638Z,23.40
2018-05-17T14:21:44.229Z,23.40
2018-05-17T14:24:13.320Z,23.50
2018-05-17T14:26:42.028Z,23.60
2018-05-17T14:29:10.306Z,23.60
2018-05-17T14:31:37.865Z,23.60
2018-05-17T14:34:05.450Z,23.70
2018-05-17T14:36:33.116Z,23.70
2018-05-17T14:39:00.852Z,23.60
2018-05-17T14:41:28.530Z,23.40
2018-05-17T14:43:57.616Z,23.50
2018-05-17T14:46:25.476Z,23.40
2018-05-17T14:48:52.972Z,23.50
2018-05-17T14:51:21.242Z,23.30
2018-05-17T14:56:24.281Z,23.20
2018-05-17T14:58:52.074Z,23.20
2018-05-17T15:01:19.673Z,23.20
2018-05-17T15:03:48.403Z,23.10
2018-05-17T15:06:15.972Z,23.10
2018-05-17T15:08:43.672Z,23.10
2018-05-17T15:11:14.748Z,23.10
2018-05-17T15:13:39.317Z,23.10
2018-05-17T15:16:06.887Z,23.10
2018-05-17T15:18:34.591Z,23.00
2018-05-17T15:21:02.900Z,23.00
2018-05-17T15:23:30.426Z,23.00
2018-05-17T15:25:58.688Z,22.90
2018-05-17T15:28:26.290Z,22.90
2018-05-17T15:30:53.788Z,22.90
2018-05-17T15:33:21.292Z,22.90
2018-05-17T15:35:49.584Z,23.00
2018-05-17T15:38:17.840Z,23.00
2018-05-17T15:40:46.066Z,22.90
2018-05-17T15:43:14.336Z,22.90
2018-05-17T15:45:42.608Z,22.90
2018-05-17T15:48:10.895Z,22.90
2018-05-17T15:50:38.541Z,22.90
2018-05-17T15:53:06.417Z,22.90
2018-05-17T15:55:34.640Z,22.80
2018-05-17T15:58:02.258Z,22.70
2018-05-17T16:00:30.556Z,22.80
2018-05-17T16:02:58.838Z,22.70
2018-05-17T16:05:27.135Z,22.70
2018-05-17T16:07:54.646Z,22.70
2018-05-17T16:10:22.476Z,22.80
2018-05-17T16:12:50.000Z,22.80
2018-05-17T16:15:18.503Z,22.60
2018-05-17T16:17:45.872Z,22.60
2018-05-17T16:20:13.372Z,22.60
2018-05-17T16:22:40.876Z,22.60
2018-05-17T16:25:09.120Z,22.40
2018-05-17T16:27:36.652Z,22.40
2018-05-17T16:30:04.930Z,22.40
2018-05-17T16:32:32.470Z,22.40
2018-05-17T16:35:00.730Z,22.60
2018-05-17T16:37:28.324Z,22.60
2018-05-17T16:39:56.506Z,22.60
2018-05-17T16:42:24.874Z,22.40
2018-05-17T16:44:53.670Z,22.30
2018-05-17T16:47:21.926Z,22.20
2018-05-17T16:49:49.456Z,22.20
2018-05-17T16:52:16.939Z,22.00
2018-05-17T16:54:44.666Z,22.00
2018-05-17T16:57:12.183Z,22.00
2018-05-17T16:59:39.722Z,22.00
2018-05-17T17:02:07.645Z,21.90
2018-05-17T17:04:35.959Z,21.90
2018-05-17T17:07:03.452Z,21.90
2018-05-17T17:09:31.182Z,21.80
2018-05-17T17:11:59.513Z,21.80
2018-05-17T17:14:27.112Z,21.70
2018-05-17T17:16:55.375Z,21.50
2018-05-17T17:19:23.149Z,21.50
2018-05-17T17:21:51.556Z,21.40
2018-05-17T17:24:19.246Z,21.40
2018-05-17T17:26:46.736Z,21.40
2018-05-17T17:29:14.314Z,21.40
2018-05-17T17:31:42.906Z,21.30
2018-05-17T17:34:10.480Z,21.30
2018-05-17T17:36:37.978Z,21.30
2018-05-17T17:39:06.024Z,21.20
2018-05-17T17:41:34.303Z,21.10
2018-05-17T17:44:02.554Z,21.10
2018-05-17T17:46:30.047Z,21.10
2018-05-17T17:48:58.339Z,21.00
2018-05-17T17:51:26.602Z,20.90
2018-05-17T17:53:54.109Z,20.90
2018-05-17T17:56:21.629Z,20.80
2018-05-17T17:58:49.233Z,20.70
2018-05-17T18:01:16.745Z,20.60
2018-05-17T18:03:44.304Z,20.60
2018-05-17T18:06:11.794Z,20.50
2018-05-17T18:08:40.310Z,20.30
2018-05-17T18:11:07.846Z,20.30
2018-05-17T18:13:36.112Z,20.20
2018-05-17T18:16:04.362Z,20.10
2018-05-17T18:18:33.165Z,20.10
2018-05-17T18:21:00.660Z,20.10
2018-05-17T18:23:28.930Z,20.10
2018-05-17T18:25:57.206Z,20.00
2018-05-17T18:28:24.786Z,20.00
2018-05-17T18:30:53.066Z,19.90
2018-05-17T18:33:21.376Z,19.80
2018-05-17T18:35:49.536Z,19.80
2018-05-17T18:38:17.232Z,19.70
2018-05-17T18:40:45.133Z,19.60
2018-05-17T18:43:12.678Z,19.50
2018-05-17T18:45:41.626Z,19.40
2018-05-17T18:48:09.890Z,19.30
2018-05-17T18:50:37.468Z,19.30
2018-05-17T18:53:05.730Z,19.20
2018-05-17T18:55:33.278Z,19.20
2018-05-17T18:58:00.779Z,19.10
2018-05-17T19:00:29.130Z,19.10
2018-05-17T19:02:56.645Z,19.00
2018-05-17T19:05:25.020Z,19.10
2018-05-17T19:07:52.507Z,19.10
2018-05-17T19:10:20.158Z,19.00
2018-05-17T19:12:47.654Z,19.00
2018-05-17T19:15:15.775Z,18.90
2018-05-17T19:17:44.735Z,18.80
2018-05-17T19:20:12.256Z,18.80
2018-05-17T19:22:39.795Z,18.80
2018-05-17T19:25:08.085Z,18.70
2018-05-17T19:27:37.102Z,18.60
2018-05-17T19:30:04.724Z,18.60
2018-05-17T19:32:32.239Z,18.60
2018-05-17T19:35:00.048Z,18.50
2018-05-17T19:37:27.609Z,18.50
2018-05-17T19:39:55.136Z,18.50
2018-05-17T19:42:22.620Z,18.40
2018-05-17T19:44:50.261Z,18.40
2018-05-17T19:47:17.903Z,18.30
2018-05-17T19:49:46.715Z,18.30
2018-05-17T19:52:14.198Z,18.20
2018-05-17T19:54:42.189Z,18.10
2018-05-17T19:57:09.846Z,18.10
2018-05-17T19:59:37.342Z,18.00
2018-05-17T20:02:04.974Z,18.00
2018-05-17T20:04:33.204Z,17.80
2018-05-17T20:07:02.405Z,17.70
2018-05-17T20:09:30.881Z,17.60
2018-05-17T20:11:58.689Z,17.60
2018-05-17T20:14:26.198Z,17.50
2018-05-17T20:16:54.797Z,17.50
2018-05-17T20:19:22.271Z,17.40
2018-05-17T20:21:49.970Z,17.20
2018-05-17T20:24:17.452Z,17.20
2018-05-17T20:26:44.967Z,17.10
2018-05-17T20:29:14.741Z,17.00
2018-05-17T20:31:42.451Z,17.00
2018-05-17T20:34:11.038Z,16.90
2018-05-17T20:36:39.410Z,16.80
2018-05-17T20:39:06.975Z,16.80
2018-05-17T20:41:35.179Z,16.80
2018-05-17T20:44:02.700Z,16.70
2018-05-17T20:46:30.301Z,16.60
2018-05-17T20:48:59.043Z,16.50
2018-05-17T20:51:26.558Z,16.50
2018-05-17T20:53:54.820Z,16.50
2018-05-17T20:56:22.700Z,16.40
2018-05-17T20:58:52.294Z,16.40
2018-05-17T21:01:20.626Z,16.30
2018-05-17T21:03:48.485Z,16.30
2018-05-17T21:06:16.007Z,16.20
2018-05-17T21:08:43.514Z,16.20
2018-05-17T21:11:11.034Z,16.10
2018-05-17T21:13:39.544Z,16.10
2018-05-17T21:16:07.102Z,16.10
2018-05-17T21:18:36.144Z,15.90
2018-05-17T21:21:03.718Z,15.90
2018-05-17T21:23:31.269Z,15.80
2018-05-17T21:25:58.926Z,15.70
2018-05-17T21:28:26.428Z,15.70
2018-05-17T21:30:54.660Z,15.60
2018-05-17T21:33:22.165Z,15.50
2018-05-17T21:35:50.543Z,15.40
2018-05-17T21:38:18.899Z,15.30
2018-05-17T21:40:46.541Z,15.20
2018-05-17T21:43:14.812Z,15.10
2018-05-17T21:45:43.086Z,15.10
2018-05-17T21:48:10.573Z,15.00
2018-05-17T21:50:38.836Z,14.90
2018-05-17T21:53:06.360Z,14.90
2018-05-17T21:55:34.527Z,14.80
2018-05-17T21:58:02.213Z,14.70
2018-05-17T22:00:30.004Z,14.70
2018-05-17T22:02:59.016Z,14.60
2018-05-17T22:05:27.280Z,14.50
2018-05-17T22:07:54.854Z,14.50
2018-05-17T22:10:22.515Z,14.50
2018-05-17T22:12:50.844Z,14.40
2018-05-17T22:15:19.352Z,14.30
2018-05-17T22:17:46.834Z,14.30
2018-05-17T22:20:15.211Z,14.20
2018-05-17T22:22:42.736Z,14.20
2018-05-17T22:25:10.226Z,14.10
2018-05-17T22:27:37.840Z,14.00
2018-05-17T22:30:06.108Z,13.90
2018-05-17T22:32:34.735Z,13.90
2018-05-17T22:35:02.245Z,13.80
2018-05-17T22:37:29.742Z,13.90
2018-05-17T22:39:57.999Z,13.80
2018-05-17T22:42:26.269Z,13.70
2018-05-17T22:44:53.752Z,13.70
2018-05-17T22:47:22.016Z,13.60
2018-05-17T22:49:50.004Z,13.60
2018-05-17T22:52:18.931Z,13.50
2018-05-17T22:54:46.430Z,13.50
2018-05-17T22:57:13.970Z,13.50
2018-05-17T22:59:42.622Z,13.50
2018-05-17T23:02:10.584Z,13.40
2018-05-17T23:04:38.848Z,13.40
2018-05-17T23:07:06.814Z,13.30
2018-05-17T23:09:34.298Z,13.30
2018-05-17T23:12:02.003Z,13.20
2018-05-17T23:14:29.623Z,13.20
2018-05-17T23:16:57.122Z,13.20
2018-05-17T23:19:24.717Z,13.20
2018-05-17T23:21:52.231Z,13.10
2018-05-17T23:24:21.140Z,13.00
2018-05-17T23:26:50.280Z,13.00
2018-05-17T23:29:17.811Z,13.00
2018-05-17T23:31:45.354Z,12.90
2018-05-17T23:34:13.630Z,12.90
2018-05-17T23:36:41.146Z,12.90
2018-05-17T23:39:08.647Z,12.90
2018-05-17T23:41:36.974Z,12.80
2018-05-17T23:44:05.184Z,12.80
2018-05-17T23:46:32.796Z,12.80
2018-05-17T23:49:01.067Z,12.80
2018-05-17T23:51:30.014Z,12.70
2018-05-17T23:53:57.505Z,12.70
2018-05-17T23:56:25.124Z,12.70
2018-05-17T23:58:52.711Z,12.60
